sensor_id;sensor_type;location;lat;lon;timestamp;temperature;humidity
25877;DHT22;13692;47.480;19.216;2023-05-18T00:00:30;13.60;99.90
25877;DHT22;13692;47.480;19.216;2023-05-18T00:02:57;13.60;99.90
25877;DHT22;13692;47.480;19.216;2023-05-18T00:05:24;13.60;99.90
25877;DHT22;13692;47.480;19.216;2023-05-18T00:07:51;13.60;99.90
25877;DHT22;13692;47.480;19.216;2023-05-18T00:10:18;13.50;99.90
25877;DHT22;13692;47.480;19.216;2023-05-18T00:12:46;13.50;99.90
25877;DHT22;13692;47.480;19.216;2023-05-18T00:15:13;13.50;99.90
25877;DHT22;13692;47.480;19.216;2023-05-18T00:17:40;13.50;99.90
25877;DHT22;13692;47.480;19.216;2023-05-18T00:20:08;13.60;99.90
25877;DHT22;13692;47.480;19.216;2023-05-18T00:22:36;13.50;99.90
25877;DHT22;13692;47.480;19.216;2023-05-18T00:25:04;13.50;99.90
25877;DHT22;13692;47.480;19.216;2023-05-18T00:27:31;13.50;99.90
25877;DHT22;13692;47.480;19.216;2023-05-18T00:29:58;13.50;99.90
25877;DHT22;13692;47.480;19.216;2023-05-18T00:32:25;13.50;99.90
25877;DHT22;13692;47.480;19.216;2023-05-18T00:34:52;13.60;99.90
25877;DHT22;13692;47.480;19.216;2023-05-18T00:37:19;13.60;99.90
25877;DHT22;13692;47.480;19.216;2023-05-18T00:39:46;13.60;99.90
25877;DHT22;13692;47.480;19.216;2023-05-18T00:42:13;13.60;99.90
25877;DHT22;13692;47.480;19.216;2023-05-18T00:44:41;13.60;99.90
25877;DHT22;13692;47.480;19.216;2023-05-18T00:47:08;13.60;99.90
25877;DHT22;13692;47.480;19.216;2023-05-18T00:49:35;13.60;99.90
25877;DHT22;13692;47.480;19.216;2023-05-18T00:52:03;13.60;99.90
25877;DHT22;13692;47.480;19.216;2023-05-18T00:54:31;13.60;99.90
25877;DHT22;13692;47.480;19.216;2023-05-18T00:57:00;13.60;99.90
25877;DHT22;13692;47.480;19.216;2023-05-18T00:59:28;13.50;99.90
25877;DHT22;13692;47.480;19.216;2023-05-18T01:01:56;13.60;99.90
25877;DHT22;13692;47.480;19.216;2023-05-18T01:04:24;13.60;99.90
25877;DHT22;13692;47.480;19.216;2023-05-18T01:06:51;13.60;99.90
25877;DHT22;13692;47.480;19.216;2023-05-18T01:09:22;13.50;99.90
25877;DHT22;13692;47.480;19.216;2023-05-18T01:17:37;13.50;99.90
25877;DHT22;13692;47.480;19.216;2023-05-18T01:20:25;13.50;99.90
25877;DHT22;13692;47.480;19.216;2023-05-18T01:26:11;13.50;99.90
25877;DHT22;13692;47.480;19.216;2023-05-18T01:28:37;13.50;99.90
25877;DHT22;13692;47.480;19.216;2023-05-18T01:31:05;13.40;99.90
25877;DHT22;13692;47.480;19.216;2023-05-18T01:33:32;13.40;99.90
25877;DHT22;13692;47.480;19.216;2023-05-18T01:35:59;13.40;99.90
25877;DHT22;13692;47.480;19.216;2023-05-18T01:38:27;13.50;99.90
25877;DHT22;13692;47.480;19.216;2023-05-18T01:52:08;13.40;99.90
25877;DHT22;13692;47.480;19.216;2023-05-18T01:54:40;13.30;99.90
25877;DHT22;13692;47.480;19.216;2023-05-18T01:57:07;13.30;99.90
25877;DHT22;13692;47.480;19.216;2023-05-18T01:59:36;13.30;99.90
25877;DHT22;13692;47.480;19.216;2023-05-18T02:02:04;13.30;99.90
25877;DHT22;13692;47.480;19.216;2023-05-18T02:04:31;13.30;99.90
25877;DHT22;13692;47.480;19.216;2023-05-18T02:07:00;13.30;99.90
25877;DHT22;13692;47.480;19.216;2023-05-18T02:09:27;13.30;99.90
25877;DHT22;13692;47.480;19.216;2023-05-18T02:11:54;13.30;99.90
25877;DHT22;13692;47.480;19.216;2023-05-18T02:14:21;13.40;99.90
25877;DHT22;13692;47.480;19.216;2023-05-18T02:16:48;13.40;99.90
25877;DHT22;13692;47.480;19.216;2023-05-18T02:19:19;13.30;99.90
25877;DHT22;13692;47.480;19.216;2023-05-18T02:21:46;13.20;99.90
25877;DHT22;13692;47.480;19.216;2023-05-18T02:24:13;13.20;99.90
25877;DHT22;13692;47.480;19.216;2023-05-18T02:26:40;13.30;99.90
25877;DHT22;13692;47.480;19.216;2023-05-18T02:29:07;13.30;99.90
25877;DHT22;13692;47.480;19.216;2023-05-18T02:31:37;13.20;99.90
25877;DHT22;13692;47.480;19.216;2023-05-18T02:34:05;13.30;99.90
25877;DHT22;13692;47.480;19.216;2023-05-18T02:36:32;13.30;99.90
25877;DHT22;13692;47.480;19.216;2023-05-18T02:39:06;13.30;99.90
25877;DHT22;13692;47.480;19.216;2023-05-18T02:41:36;13.30;99.90
25877;DHT22;13692;47.480;19.216;2023-05-18T02:44:04;13.30;99.90
25877;DHT22;13692;47.480;19.216;2023-05-18T02:46:31;13.20;99.90
25877;DHT22;13692;47.480;19.216;2023-05-18T02:48:58;13.20;99.90
25877;DHT22;13692;47.480;19.216;2023-05-18T02:51:25;13.20;99.90
25877;DHT22;13692;47.480;19.216;2023-05-18T02:53:52;13.20;99.90
25877;DHT22;13692;47.480;19.216;2023-05-18T02:56:19;13.20;99.90
25877;DHT22;13692;47.480;19.216;2023-05-18T02:58:46;13.20;99.90
25877;DHT22;13692;47.480;19.216;2023-05-18T03:01:13;13.20;99.90
25877;DHT22;13692;47.480;19.216;2023-05-18T03:03:40;13.10;99.90
25877;DHT22;13692;47.480;19.216;2023-05-18T03:06:08;13.10;99.90
25877;DHT22;13692;47.480;19.216;2023-05-18T03:08:35;13.00;99.90
25877;DHT22;13692;47.480;19.216;2023-05-18T03:11:06;13.00;99.90
25877;DHT22;13692;47.480;19.216;2023-05-18T03:13:33;13.00;99.90
25877;DHT22;13692;47.480;19.216;2023-05-18T03:16:00;13.00;99.90
25877;DHT22;13692;47.480;19.216;2023-05-18T03:18:27;13.00;99.90
25877;DHT22;13692;47.480;19.216;2023-05-18T03:20:54;13.00;99.90
25877;DHT22;13692;47.480;19.216;2023-05-18T03:23:21;13.00;99.90
25877;DHT22;13692;47.480;19.216;2023-05-18T03:25:48;12.90;99.90
25877;DHT22;13692;47.480;19.216;2023-05-18T03:28:19;12.90;99.90
25877;DHT22;13692;47.480;19.216;2023-05-18T03:30:47;12.90;99.90
25877;DHT22;13692;47.480;19.216;2023-05-18T03:33:14;12.90;99.90
25877;DHT22;13692;47.480;19.216;2023-05-18T03:35:41;13.00;99.90
25877;DHT22;13692;47.480;19.216;2023-05-18T03:38:08;13.00;99.90
25877;DHT22;13692;47.480;19.216;2023-05-18T03:40:35;13.00;99.90
25877;DHT22;13692;47.480;19.216;2023-05-18T03:43:02;13.00;99.90
25877;DHT22;13692;47.480;19.216;2023-05-18T03:45:29;13.00;99.90
25877;DHT22;13692;47.480;19.216;2023-05-18T03:47:56;13.00;99.90
25877;DHT22;13692;47.480;19.216;2023-05-18T03:50:23;13.00;99.90
25877;DHT22;13692;47.480;19.216;2023-05-18T03:52:51;13.00;99.90
25877;DHT22;13692;47.480;19.216;2023-05-18T03:55:18;13.00;99.90
25877;DHT22;13692;47.480;19.216;2023-05-18T03:57:47;13.00;99.90
25877;DHT22;13692;47.480;19.216;2023-05-18T04:00:15;13.00;99.90
25877;DHT22;13692;47.480;19.216;2023-05-18T04:02:42;13.00;99.90
25877;DHT22;13692;47.480;19.216;2023-05-18T04:05:09;13.00;99.90
25877;DHT22;13692;47.480;19.216;2023-05-18T04:07:36;13.00;99.90
25877;DHT22;13692;47.480;19.216;2023-05-18T04:10:10;13.00;99.90
25877;DHT22;13692;47.480;19.216;2023-05-18T04:12:38;13.00;99.90
25877;DHT22;13692;47.480;19.216;2023-05-18T04:15:05;13.00;99.90
25877;DHT22;13692;47.480;19.216;2023-05-18T04:17:32;13.00;99.90
25877;DHT22;13692;47.480;19.216;2023-05-18T04:20:01;13.00;99.90
25877;DHT22;13692;47.480;19.216;2023-05-18T04:22:41;13.00;99.90
25877;DHT22;13692;47.480;19.216;2023-05-18T04:25:15;12.90;99.90
25877;DHT22;13692;47.480;19.216;2023-05-18T04:27:43;12.90;99.90
25877;DHT22;13692;47.480;19.216;2023-05-18T04:30:17;13.00;99.90
25877;DHT22;13692;47.480;19.216;2023-05-18T04:32:44;13.00;99.90
25877;DHT22;13692;47.480;19.216;2023-05-18T04:35:11;13.00;99.90
25877;DHT22;13692;47.480;19.216;2023-05-18T04:37:38;13.00;99.90
25877;DHT22;13692;47.480;19.216;2023-05-18T04:40:09;13.00;99.90
25877;DHT22;13692;47.480;19.216;2023-05-18T04:42:40;13.00;99.90
25877;DHT22;13692;47.480;19.216;2023-05-18T04:45:16;12.90;99.90
25877;DHT22;13692;47.480;19.216;2023-05-18T04:47:44;12.90;99.90
25877;DHT22;13692;47.480;19.216;2023-05-18T04:50:14;12.90;99.90
25877;DHT22;13692;47.480;19.216;2023-05-18T04:52:46;12.80;99.90
25877;DHT22;13692;47.480;19.216;2023-05-18T04:55:19;12.90;99.90
25877;DHT22;13692;47.480;19.216;2023-05-18T04:57:55;12.90;99.90
25877;DHT22;13692;47.480;19.216;2023-05-18T05:00:24;12.90;99.90
25877;DHT22;13692;47.480;19.216;2023-05-18T05:02:52;12.80;99.90
25877;DHT22;13692;47.480;19.216;2023-05-18T05:05:20;12.90;99.90
25877;DHT22;13692;47.480;19.216;2023-05-18T05:07:51;12.80;99.90
25877;DHT22;13692;47.480;19.216;2023-05-18T05:10:19;12.90;99.90
25877;DHT22;13692;47.480;19.216;2023-05-18T05:12:47;12.80;99.90
25877;DHT22;13692;47.480;19.216;2023-05-18T05:15:16;12.80;99.90
25877;DHT22;13692;47.480;19.216;2023-05-18T05:17:44;12.90;99.90
25877;DHT22;13692;47.480;19.216;2023-05-18T05:20:11;13.00;99.90
25877;DHT22;13692;47.480;19.216;2023-05-18T05:22:38;13.00;99.90
25877;DHT22;13692;47.480;19.216;2023-05-18T05:25:06;13.00;99.90
25877;DHT22;13692;47.480;19.216;2023-05-18T05:27:33;13.00;99.90
25877;DHT22;13692;47.480;19.216;2023-05-18T05:30:00;13.00;99.90
25877;DHT22;13692;47.480;19.216;2023-05-18T05:32:27;13.10;99.90
25877;DHT22;13692;47.480;19.216;2023-05-18T05:34:54;13.10;99.90
25877;DHT22;13692;47.480;19.216;2023-05-18T05:37:21;13.10;99.90
25877;DHT22;13692;47.480;19.216;2023-05-18T05:39:48;13.10;99.90
25877;DHT22;13692;47.480;19.216;2023-05-18T05:42:15;13.20;99.90
25877;DHT22;13692;47.480;19.216;2023-05-18T05:44:42;13.20;99.90
25877;DHT22;13692;47.480;19.216;2023-05-18T05:47:09;13.20;99.90
25877;DHT22;13692;47.480;19.216;2023-05-18T05:49:36;13.30;99.90
25877;DHT22;13692;47.480;19.216;2023-05-18T05:52:03;13.20;99.90
25877;DHT22;13692;47.480;19.216;2023-05-18T05:54:31;13.30;99.90
25877;DHT22;13692;47.480;19.216;2023-05-18T05:56:57;13.30;99.90
25877;DHT22;13692;47.480;19.216;2023-05-18T05:59:24;13.30;99.90
25877;DHT22;13692;47.480;19.216;2023-05-18T06:01:52;13.30;99.90
25877;DHT22;13692;47.480;19.216;2023-05-18T06:04:19;13.30;99.90
25877;DHT22;13692;47.480;19.216;2023-05-18T06:06:47;13.40;99.90
25877;DHT22;13692;47.480;19.216;2023-05-18T06:09:14;13.40;99.90
25877;DHT22;13692;47.480;19.216;2023-05-18T06:11:42;13.40;99.90
25877;DHT22;13692;47.480;19.216;2023-05-18T06:14:09;13.30;99.90
25877;DHT22;13692;47.480;19.216;2023-05-18T06:16:36;13.30;99.90
25877;DHT22;13692;47.480;19.216;2023-05-18T06:19:03;13.30;99.90
25877;DHT22;13692;47.480;19.216;2023-05-18T06:21:30;13.30;99.90
25877;DHT22;13692;47.480;19.216;2023-05-18T06:23:57;13.30;99.90
25877;DHT22;13692;47.480;19.216;2023-05-18T06:26:25;13.30;99.90
25877;DHT22;13692;47.480;19.216;2023-05-18T06:28:51;13.30;99.90
25877;DHT22;13692;47.480;19.216;2023-05-18T06:31:18;13.30;99.90
25877;DHT22;13692;47.480;19.216;2023-05-18T06:33:45;13.30;99.90
25877;DHT22;13692;47.480;19.216;2023-05-18T06:36:14;13.40;99.90
25877;DHT22;13692;47.480;19.216;2023-05-18T06:38:41;13.40;99.90
25877;DHT22;13692;47.480;19.216;2023-05-18T06:41:08;13.40;99.90
25877;DHT22;13692;47.480;19.216;2023-05-18T06:43:35;13.40;99.90
25877;DHT22;13692;47.480;19.216;2023-05-18T06:46:02;13.50;99.90
25877;DHT22;13692;47.480;19.216;2023-05-18T06:48:29;13.50;99.90
25877;DHT22;13692;47.480;19.216;2023-05-18T06:50:56;13.50;99.90
25877;DHT22;13692;47.480;19.216;2023-05-18T06:53:23;13.50;99.90
25877;DHT22;13692;47.480;19.216;2023-05-18T06:55:50;13.50;99.90
25877;DHT22;13692;47.480;19.216;2023-05-18T06:58:17;13.50;99.90
25877;DHT22;13692;47.480;19.216;2023-05-18T07:00:44;13.50;99.90
25877;DHT22;13692;47.480;19.216;2023-05-18T07:03:11;13.60;99.90
25877;DHT22;13692;47.480;19.216;2023-05-18T07:05:38;13.60;99.90
25877;DHT22;13692;47.480;19.216;2023-05-18T07:08:05;13.60;99.90
25877;DHT22;13692;47.480;19.216;2023-05-18T07:10:33;13.60;99.90
25877;DHT22;13692;47.480;19.216;2023-05-18T07:13:01;13.60;99.90
25877;DHT22;13692;47.480;19.216;2023-05-18T07:15:28;13.70;99.90
25877;DHT22;13692;47.480;19.216;2023-05-18T07:17:55;13.70;99.90
25877;DHT22;13692;47.480;19.216;2023-05-18T07:20:23;13.70;99.90
25877;DHT22;13692;47.480;19.216;2023-05-18T07:22:52;13.70;99.90
25877;DHT22;13692;47.480;19.216;2023-05-18T07:25:21;13.70;99.90
25877;DHT22;13692;47.480;19.216;2023-05-18T07:27:49;13.70;99.90
25877;DHT22;13692;47.480;19.216;2023-05-18T07:30:17;13.70;99.90
25877;DHT22;13692;47.480;19.216;2023-05-18T07:32:44;13.80;99.90
25877;DHT22;13692;47.480;19.216;2023-05-18T07:35:12;13.80;99.90
25877;DHT22;13692;47.480;19.216;2023-05-18T07:37:39;13.80;99.90
25877;DHT22;13692;47.480;19.216;2023-05-18T07:40:06;13.90;99.90
25877;DHT22;13692;47.480;19.216;2023-05-18T07:42:37;13.80;99.90
25877;DHT22;13692;47.480;19.216;2023-05-18T07:45:04;13.80;99.90
25877;DHT22;13692;47.480;19.216;2023-05-18T07:47:31;13.80;99.90
25877;DHT22;13692;47.480;19.216;2023-05-18T07:49:59;13.80;99.90
25877;DHT22;13692;47.480;19.216;2023-05-18T07:52:26;13.80;99.90
25877;DHT22;13692;47.480;19.216;2023-05-18T07:54:54;13.80;99.90
25877;DHT22;13692;47.480;19.216;2023-05-18T07:57:23;13.70;99.90
25877;DHT22;13692;47.480;19.216;2023-05-18T07:59:50;13.80;99.90
25877;DHT22;13692;47.480;19.216;2023-05-18T08:02:17;13.80;99.90
25877;DHT22;13692;47.480;19.216;2023-05-18T08:04:46;13.80;99.90
25877;DHT22;13692;47.480;19.216;2023-05-18T08:07:13;13.90;99.90
25877;DHT22;13692;47.480;19.216;2023-05-18T08:09:40;13.90;99.90
25877;DHT22;13692;47.480;19.216;2023-05-18T08:12:07;13.90;99.90
25877;DHT22;13692;47.480;19.216;2023-05-18T08:14:34;13.90;99.90
25877;DHT22;13692;47.480;19.216;2023-05-18T08:17:03;14.00;99.90
25877;DHT22;13692;47.480;19.216;2023-05-18T08:19:30;14.00;99.90
25877;DHT22;13692;47.480;19.216;2023-05-18T08:21:57;14.00;99.90
25877;DHT22;13692;47.480;19.216;2023-05-18T08:24:24;14.00;99.90
25877;DHT22;13692;47.480;19.216;2023-05-18T08:26:51;13.90;99.90
25877;DHT22;13692;47.480;19.216;2023-05-18T08:29:18;14.00;99.90
25877;DHT22;13692;47.480;19.216;2023-05-18T08:31:45;14.00;99.90
25877;DHT22;13692;47.480;19.216;2023-05-18T08:34:15;14.00;99.90
25877;DHT22;13692;47.480;19.216;2023-05-18T08:36:42;14.10;99.90
25877;DHT22;13692;47.480;19.216;2023-05-18T08:39:11;14.10;99.90
25877;DHT22;13692;47.480;19.216;2023-05-18T08:44:49;14.30;99.90
25877;DHT22;13692;47.480;19.216;2023-05-18T08:47:21;14.30;99.90
25877;DHT22;13692;47.480;19.216;2023-05-18T08:49:55;14.20;99.90
25877;DHT22;13692;47.480;19.216;2023-05-18T08:52:24;14.30;99.90
25877;DHT22;13692;47.480;19.216;2023-05-18T08:54:56;14.40;99.90
25877;DHT22;13692;47.480;19.216;2023-05-18T08:57:26;14.40;99.90
25877;DHT22;13692;47.480;19.216;2023-05-18T08:59:55;14.50;99.90
25877;DHT22;13692;47.480;19.216;2023-05-18T09:02:24;14.50;99.90
25877;DHT22;13692;47.480;19.216;2023-05-18T09:04:53;14.70;99.90
25877;DHT22;13692;47.480;19.216;2023-05-18T09:07:22;14.80;99.90
25877;DHT22;13692;47.480;19.216;2023-05-18T09:09:49;14.80;99.90
25877;DHT22;13692;47.480;19.216;2023-05-18T09:12:18;14.90;99.90
25877;DHT22;13692;47.480;19.216;2023-05-18T09:14:50;14.90;99.90
25877;DHT22;13692;47.480;19.216;2023-05-18T09:17:18;15.00;99.90
25877;DHT22;13692;47.480;19.216;2023-05-18T09:19:45;15.00;99.90
25877;DHT22;13692;47.480;19.216;2023-05-18T09:22:12;15.00;99.90
25877;DHT22;13692;47.480;19.216;2023-05-18T09:24:41;14.90;99.90
25877;DHT22;13692;47.480;19.216;2023-05-18T09:27:07;15.00;99.90
25877;DHT22;13692;47.480;19.216;2023-05-18T09:29:34;15.10;99.90
25877;DHT22;13692;47.480;19.216;2023-05-18T09:32:09;15.00;99.90
25877;DHT22;13692;47.480;19.216;2023-05-18T09:34:40;15.10;99.90
25877;DHT22;13692;47.480;19.216;2023-05-18T09:37:08;15.20;99.90
25877;DHT22;13692;47.480;19.216;2023-05-18T09:39:35;15.30;99.90
25877;DHT22;13692;47.480;19.216;2023-05-18T09:42:03;15.30;99.90
25877;DHT22;13692;47.480;19.216;2023-05-18T09:44:32;15.40;99.90
25877;DHT22;13692;47.480;19.216;2023-05-18T09:47:00;15.40;99.90
25877;DHT22;13692;47.480;19.216;2023-05-18T09:49:30;15.50;99.90
25877;DHT22;13692;47.480;19.216;2023-05-18T09:51:57;15.50;99.90
25877;DHT22;13692;47.480;19.216;2023-05-18T09:54:27;15.50;99.90
25877;DHT22;13692;47.480;19.216;2023-05-18T09:56:56;15.60;99.90
25877;DHT22;13692;47.480;19.216;2023-05-18T09:59:36;15.60;99.90
25877;DHT22;13692;47.480;19.216;2023-05-18T10:02:04;15.80;99.90
25877;DHT22;13692;47.480;19.216;2023-05-18T10:04:41;15.80;99.90
25877;DHT22;13692;47.480;19.216;2023-05-18T10:07:14;15.90;99.90
25877;DHT22;13692;47.480;19.216;2023-05-18T10:09:43;16.00;99.90
25877;DHT22;13692;47.480;19.216;2023-05-18T10:12:14;16.10;99.90
25877;DHT22;13692;47.480;19.216;2023-05-18T10:14:43;16.00;99.90
25877;DHT22;13692;47.480;19.216;2023-05-18T10:17:14;16.00;99.90
25877;DHT22;13692;47.480;19.216;2023-05-18T10:19:44;16.10;99.90
25877;DHT22;13692;47.480;19.216;2023-05-18T10:22:14;16.20;99.90
25877;DHT22;13692;47.480;19.216;2023-05-18T10:24:44;16.20;99.90
25877;DHT22;13692;47.480;19.216;2023-05-18T10:27:13;16.20;99.90
25877;DHT22;13692;47.480;19.216;2023-05-18T10:29:42;16.30;99.90
25877;DHT22;13692;47.480;19.216;2023-05-18T10:32:11;16.10;99.90
25877;DHT22;13692;47.480;19.216;2023-05-18T10:34:39;16.10;99.90
25877;DHT22;13692;47.480;19.216;2023-05-18T10:37:08;16.20;99.90
25877;DHT22;13692;47.480;19.216;2023-05-18T10:39:38;16.20;99.90
25877;DHT22;13692;47.480;19.216;2023-05-18T10:42:11;16.10;99.90
25877;DHT22;13692;47.480;19.216;2023-05-18T10:44:39;16.00;99.90
25877;DHT22;13692;47.480;19.216;2023-05-18T10:47:07;15.90;99.90
25877;DHT22;13692;47.480;19.216;2023-05-18T10:49:38;15.90;99.90
25877;DHT22;13692;47.480;19.216;2023-05-18T10:52:06;15.80;99.90
25877;DHT22;13692;47.480;19.216;2023-05-18T10:54:34;15.70;99.90
25877;DHT22;13692;47.480;19.216;2023-05-18T10:57:02;15.60;99.90
25877;DHT22;13692;47.480;19.216;2023-05-18T10:59:29;15.60;99.90
25877;DHT22;13692;47.480;19.216;2023-05-18T11:01:56;15.60;99.90
25877;DHT22;13692;47.480;19.216;2023-05-18T11:04:24;15.60;99.90
25877;DHT22;13692;47.480;19.216;2023-05-18T11:06:58;15.60;99.90
25877;DHT22;13692;47.480;19.216;2023-05-18T11:09:27;15.60;99.90
25877;DHT22;13692;47.480;19.216;2023-05-18T11:11:58;15.60;99.90
25877;DHT22;13692;47.480;19.216;2023-05-18T11:14:26;15.50;99.90
25877;DHT22;13692;47.480;19.216;2023-05-18T11:16:56;15.50;99.90
25877;DHT22;13692;47.480;19.216;2023-05-18T11:27:58;15.60;99.90
25877;DHT22;13692;47.480;19.216;2023-05-18T11:30:45;15.50;99.90
25877;DHT22;13692;47.480;19.216;2023-05-18T11:33:28;15.40;99.90
25877;DHT22;13692;47.480;19.216;2023-05-18T11:38:52;15.50;99.90
25877;DHT22;13692;47.480;19.216;2023-05-18T11:41:37;15.70;99.90
25877;DHT22;13692;47.480;19.216;2023-05-18T11:44:15;15.70;99.90
25877;DHT22;13692;47.480;19.216;2023-05-18T11:49:45;15.70;99.90
25877;DHT22;13692;47.480;19.216;2023-05-18T11:52:20;15.80;99.90
25877;DHT22;13692;47.480;19.216;2023-05-18T11:54:54;15.90;99.90
25877;DHT22;13692;47.480;19.216;2023-05-18T11:57:26;15.90;99.90
25877;DHT22;13692;47.480;19.216;2023-05-18T11:59:57;15.90;99.90
25877;DHT22;13692;47.480;19.216;2023-05-18T12:02:26;15.90;99.90
25877;DHT22;13692;47.480;19.216;2023-05-18T12:04:56;15.90;99.90
25877;DHT22;13692;47.480;19.216;2023-05-18T12:07:24;16.00;99.90
25877;DHT22;13692;47.480;19.216;2023-05-18T12:09:51;16.10;99.90
25877;DHT22;13692;47.480;19.216;2023-05-18T12:12:18;15.90;99.90
25877;DHT22;13692;47.480;19.216;2023-05-18T12:14:55;15.90;99.90
25877;DHT22;13692;47.480;19.216;2023-05-18T12:17:28;16.00;99.90
25877;DHT22;13692;47.480;19.216;2023-05-18T12:20:03;16.10;99.90
25877;DHT22;13692;47.480;19.216;2023-05-18T12:22:30;16.10;99.90
25877;DHT22;13692;47.480;19.216;2023-05-18T12:24:57;16.10;99.90
25877;DHT22;13692;47.480;19.216;2023-05-18T12:27:24;16.10;99.90
25877;DHT22;13692;47.480;19.216;2023-05-18T12:29:52;16.20;99.90
25877;DHT22;13692;47.480;19.216;2023-05-18T12:32:19;16.20;99.90
25877;DHT22;13692;47.480;19.216;2023-05-18T12:34:46;16.20;99.90
25877;DHT22;13692;47.480;19.216;2023-05-18T12:37:13;16.10;99.90
25877;DHT22;13692;47.480;19.216;2023-05-18T12:39:41;16.10;99.90
25877;DHT22;13692;47.480;19.216;2023-05-18T12:42:12;16.10;99.90
25877;DHT22;13692;47.480;19.216;2023-05-18T12:44:41;16.10;99.90
25877;DHT22;13692;47.480;19.216;2023-05-18T12:47:12;16.20;99.90
25877;DHT22;13692;47.480;19.216;2023-05-18T12:49:40;16.20;99.90
25877;DHT22;13692;47.480;19.216;2023-05-18T12:54:36;16.20;99.90
25877;DHT22;13692;47.480;19.216;2023-05-18T12:57:05;16.20;99.90
25877;DHT22;13692;47.480;19.216;2023-05-18T12:59:33;16.20;99.90
25877;DHT22;13692;47.480;19.216;2023-05-18T13:02:00;16.30;99.90
25877;DHT22;13692;47.480;19.216;2023-05-18T13:04:33;16.30;99.90
25877;DHT22;13692;47.480;19.216;2023-05-18T13:07:03;16.30;99.90
25877;DHT22;13692;47.480;19.216;2023-05-18T13:09:30;16.30;99.90
25877;DHT22;13692;47.480;19.216;2023-05-18T13:11:59;16.40;99.90
25877;DHT22;13692;47.480;19.216;2023-05-18T13:14:36;16.50;99.90
25877;DHT22;13692;47.480;19.216;2023-05-18T13:17:04;16.70;99.90
25877;DHT22;13692;47.480;19.216;2023-05-18T13:19:33;16.80;99.90
25877;DHT22;13692;47.480;19.216;2023-05-18T13:22:00;16.80;99.90
25877;DHT22;13692;47.480;19.216;2023-05-18T13:24:27;16.90;99.90
25877;DHT22;13692;47.480;19.216;2023-05-18T13:26:54;17.00;99.90
25877;DHT22;13692;47.480;19.216;2023-05-18T13:29:21;16.90;99.90
25877;DHT22;13692;47.480;19.216;2023-05-18T13:31:48;16.80;99.90
25877;DHT22;13692;47.480;19.216;2023-05-18T13:34:15;16.80;99.90
25877;DHT22;13692;47.480;19.216;2023-05-18T13:36:42;16.80;99.90
25877;DHT22;13692;47.480;19.216;2023-05-18T13:39:09;16.80;99.90
25877;DHT22;13692;47.480;19.216;2023-05-18T13:41:36;16.90;99.90
25877;DHT22;13692;47.480;19.216;2023-05-18T13:44:03;17.00;99.90
25877;DHT22;13692;47.480;19.216;2023-05-18T13:46:30;17.00;99.90
25877;DHT22;13692;47.480;19.216;2023-05-18T13:48:57;17.00;99.90
25877;DHT22;13692;47.480;19.216;2023-05-18T13:51:24;16.80;99.90
25877;DHT22;13692;47.480;19.216;2023-05-18T13:53:51;16.60;99.90
25877;DHT22;13692;47.480;19.216;2023-05-18T13:56:18;16.60;99.90
25877;DHT22;13692;47.480;19.216;2023-05-18T13:58:45;16.50;99.90
25877;DHT22;13692;47.480;19.216;2023-05-18T14:01:12;16.40;99.90
25877;DHT22;13692;47.480;19.216;2023-05-18T14:03:40;16.20;99.90
25877;DHT22;13692;47.480;19.216;2023-05-18T14:06:07;16.10;99.90
25877;DHT22;13692;47.480;19.216;2023-05-18T14:08:34;16.00;99.90
25877;DHT22;13692;47.480;19.216;2023-05-18T14:11:01;16.10;99.90
25877;DHT22;13692;47.480;19.216;2023-05-18T14:13:28;16.10;99.90
25877;DHT22;13692;47.480;19.216;2023-05-18T14:15:55;16.20;99.90
25877;DHT22;13692;47.480;19.216;2023-05-18T14:18:22;16.10;99.90
25877;DHT22;13692;47.480;19.216;2023-05-18T14:20:49;16.20;99.90
25877;DHT22;13692;47.480;19.216;2023-05-18T14:23:16;16.10;99.90
25877;DHT22;13692;47.480;19.216;2023-05-18T14:25:43;16.20;99.90
25877;DHT22;13692;47.480;19.216;2023-05-18T14:28:11;16.30;99.90
25877;DHT22;13692;47.480;19.216;2023-05-18T14:30:39;16.40;99.90
25877;DHT22;13692;47.480;19.216;2023-05-18T14:33:06;16.40;99.90
25877;DHT22;13692;47.480;19.216;2023-05-18T14:35:33;16.50;99.90
25877;DHT22;13692;47.480;19.216;2023-05-18T14:38:00;16.50;99.90
25877;DHT22;13692;47.480;19.216;2023-05-18T14:40:28;16.40;99.90
25877;DHT22;13692;47.480;19.216;2023-05-18T14:42:55;16.40;99.90
25877;DHT22;13692;47.480;19.216;2023-05-18T14:45:22;16.30;99.90
25877;DHT22;13692;47.480;19.216;2023-05-18T14:47:49;16.20;99.90
25877;DHT22;13692;47.480;19.216;2023-05-18T14:50:16;16.20;99.90
25877;DHT22;13692;47.480;19.216;2023-05-18T14:52:43;16.20;99.90
25877;DHT22;13692;47.480;19.216;2023-05-18T14:55:10;16.20;99.90
25877;DHT22;13692;47.480;19.216;2023-05-18T14:57:37;16.10;99.90
25877;DHT22;13692;47.480;19.216;2023-05-18T15:00:05;16.10;99.90
25877;DHT22;13692;47.480;19.216;2023-05-18T15:02:32;16.10;99.90
25877;DHT22;13692;47.480;19.216;2023-05-18T15:04:59;16.20;99.90
25877;DHT22;13692;47.480;19.216;2023-05-18T15:07:26;16.20;99.90
25877;DHT22;13692;47.480;19.216;2023-05-18T15:09:53;16.20;99.90
25877;DHT22;13692;47.480;19.216;2023-05-18T15:12:21;16.10;99.90
25877;DHT22;13692;47.480;19.216;2023-05-18T15:14:48;16.10;99.90
25877;DHT22;13692;47.480;19.216;2023-05-18T15:17:16;16.10;99.90
25877;DHT22;13692;47.480;19.216;2023-05-18T15:19:43;16.10;99.90
25877;DHT22;13692;47.480;19.216;2023-05-18T15:22:10;15.90;99.90
25877;DHT22;13692;47.480;19.216;2023-05-18T15:24:37;15.90;99.90
25877;DHT22;13692;47.480;19.216;2023-05-18T15:27:04;15.70;99.90
25877;DHT22;13692;47.480;19.216;2023-05-18T15:29:32;15.60;99.90
25877;DHT22;13692;47.480;19.216;2023-05-18T15:31:59;15.50;99.90
25877;DHT22;13692;47.480;19.216;2023-05-18T15:34:26;15.50;99.90
25877;DHT22;13692;47.480;19.216;2023-05-18T15:36:53;15.50;99.90
25877;DHT22;13692;47.480;19.216;2023-05-18T15:39:20;15.50;99.90
25877;DHT22;13692;47.480;19.216;2023-05-18T15:41:47;15.50;99.90
25877;DHT22;13692;47.480;19.216;2023-05-18T15:44:14;15.50;99.90
25877;DHT22;13692;47.480;19.216;2023-05-18T15:46:41;15.50;99.90
25877;DHT22;13692;47.480;19.216;2023-05-18T15:49:08;15.40;99.90
25877;DHT22;13692;47.480;19.216;2023-05-18T15:51:36;15.40;99.90
25877;DHT22;13692;47.480;19.216;2023-05-18T15:54:03;15.30;99.90
25877;DHT22;13692;47.480;19.216;2023-05-18T15:56:30;15.20;99.90
25877;DHT22;13692;47.480;19.216;2023-05-18T15:58:57;15.20;99.90
25877;DHT22;13692;47.480;19.216;2023-05-18T16:01:24;15.20;99.90